< Typhoon 198906 1989 Season Typhoon 198908 >
Typhoon 198907 (FAYE)
General InformationTrack Information on Google MapsDetailed Wind InformationList of All Images || Disaster Info.ResourceGoogle EarthGE AnimationAtom FeedGeoJSON
Detalied Best Track (Time Zone = UTC)
Year Month Day Hour Lat. Long. Pressure (hPa) Wind (kt) Class Image Chart
1989 7 6 06 15.0 129.5 1006 0 2 Image Chart
1989 7 6 12 15.5 129.4 1006 0 2 Image Chart
1989 7 6 18 16.0 129.4 1002 0 2 Image Chart
1989 7 7 00 16.4 128.6 998 35 3 Image Chart
1989 7 7 06 16.7 128.0 996 40 3 Image Chart
1989 7 7 12 16.7 127.1 994 40 3 Image Chart
1989 7 7 18 16.7 126.1 990 45 3 Image Chart
1989 7 8 00 16.7 124.9 985 50 4 Image Chart
1989 7 8 06 16.7 123.5 980 55 4 Image Chart
1989 7 8 12 16.8 121.9 985 50 4 Image Chart
1989 7 8 18 16.9 119.7 994 40 3 Image Chart
1989 7 9 00 17.0 118.4 994 40 3 Image Chart
1989 7 9 06 17.2 117.5 992 45 3 Image Chart
1989 7 9 12 17.6 116.3 992 45 3 Image Chart
1989 7 9 18 17.9 115.3 992 45 3 Image Chart
1989 7 10 00 18.5 114.0 992 45 3 Image Chart
1989 7 10 06 19.0 112.5 992 45 3 Image Chart
1989 7 10 12 19.4 111.5 992 45 3 Image Chart
1989 7 10 18 19.9 110.3 992 45 3 Image Chart
1989 7 11 00 20.4 109.2 998 0 2 Image Chart
1989 7 11 06 20.8 108.0 998 0 2 Image Chart
1989 7 11 12 21.4 106.6 1000 0 2 Image Chart
Japan Meteorological Agency Best Track Data | Correction Date : 1992-10-21
< Typhoon 198906 1989 Season Typhoon 198908 >

Help